Historyczne dane pomiarowe

Dodano dane terminowe – wersja testowa.

Dane z okresu 1951-2019

Wersja bazy: 1.34 [2019-03-16, lista zmian], aktualizacja planowana na 2019-04-15

Dane meteo z obszaru Polski uzyskane na podstawie danych udostępnionych przez Instytut Meteorologii i Gospodarki Wodnej – Państwowy Instytut Badawczy.

 

Wybierz Datę:    

       

TemperaturaWilgotnośćWiatrCiśnienieOpadyŚniegCzas trwania zjawisk
 Stacja t tx tn tng RH VA  wxwx mslp ppp RRR   cm mm wxwxwxwxwxwxwx
1997-09-11 11.5 16.5 8.2 6.1 86.3- 2.7 5.0---- 0.0------------
1997-09-12 11.9 21.6 4.7 2.2 88.3- 1.0 2.3---- 0.0------------
1997-09-13 17.3 26.5 8.6 5.5 79.8- 2.3 2.3---- 5.8------------
1997-09-14 13.6 19.8 11.0 11.0 92.3- 6.0 2.3---- 1.5------------
1997-09-15 9.1 17.7 3.2 1.5 88.0- 3.3 2.7---- 0.0------------
1997-09-16 10.5 19.7 4.1 1.3 89.0- 1.3 1.3---- 0.0------------
1997-09-17 12.2 21.6 5.9 5.2 89.3- 0.7 1.0---- 0.0------------
1997-09-18 13.1 21.5 7.1 4.5 90.0- 5.0 2.3---- 0.0------------
1997-09-19 12.5 18.9 9.4 7.2 92.3- 8.0 1.0---- 14.0------------
1997-09-20 9.0 14.6 5.6 4.5 90.8- 3.0 3.0---- 0.0------------
1997-09-21 7.4 14.6 2.6 0.0 93.3- 3.3 1.3---- 0.0------------
1997-09-22 8.5 15.6 1.8 -0.4 89.3- 4.0 1.7---- 0.0------------
1997-09-23 10.5 17.7 5.2 2.2 91.3- 4.3 3.0---- 0.9------------
1997-09-24 9.9 14.6 7.6 7.6 91.3- 6.3 2.0---- 0.4------------
1997-09-25 9.7 12.8 6.3 4.0 91.3- 7.7 3.7---- 1.2------------
1997-09-26 12.3 15.7 9.8 9.2 95.5- 6.7 3.0---- 0.2------------
1997-09-27 9.3 13.2 7.1 5.5 88.5- 5.3 3.0---- 0.0------------
1997-09-28 7.9 12.6 4.6 1.5 94.0- 4.7 1.7---- 0.0------------
1997-09-29 9.4 13.5 6.3 1.8 92.8- 7.7 3.0---- 0.0------------
1997-09-30 8.9 10.6 6.1 4.0 94.3- 8.0 3.0---- 4.4------------
1997-10-01 7.8 10.0 6.3 4.5 93.0- 8.0 3.7---- 5.0------------
1997-10-02 8.8 11.4 6.6 5.0 94.8- 8.0 5.0---- 5.1------------
1997-10-03 8.4 10.6 6.6 5.2 91.0- 7.0 7.0---- 2.0------------
1997-10-04 9.4 13.1 7.1 -0.8 89.5- 7.0 3.0---- 2.2------------
1997-10-05 10.4 13.7 9.0 3.5 93.5- 7.7 4.3---- 2.1------------
1997-10-06 7.8 14.5 3.0 2.3 91.5- 3.3 1.7---- 0.0------------
1997-10-07 12.5 21.7 7.1 6.3 91.8- 2.3 2.3---- 0.0------------
1997-10-08 14.3 21.6 8.7 8.3 92.5- 2.3 1.7---- 0.0------------
1997-10-09 15.4 20.7 10.9 6.3 91.3- 7.7 3.7---- 1.3------------
1997-10-10 16.9 20.6 15.4 13.6 90.8- 7.7 2.3---- 24.0------------
124.5 ms

 

Źródłem pochodzenia danych jest Instytut Meteorologii i Gospodarki Wodnej – Państwowy Instytut Badawczy. Dane Instytutu Meteorologii i Gospodarki Wodnej – Państwowego Instytutu Badawczego zostały przetworzone.

Dane źródłowe można odnaleźć na stronie https://dane.imgw.pl